Time;durP1;ratioP1;P1;durP2;ratioP2;P2;SDS_P1;SDS_P2;PMS_P1;PMS_P2;Temp;Humidity;BMP_temperature;BMP_pressure;BME280_temperature;BME280_humidity;BME280_pressure;Samples;Min_cycle;Max_cycle;Signal;HPM_P1;HPM_P2
2023/11/23 00:02:18;;;;;;;57.08;26.55;;;-2.50;99.90;;;;;;5073166;28;20028;-75
2023/11/23 00:04:43;;;;;;;35.30;19.15;;;-2.50;99.90;;;;;;5071700;28;20434;-75
2023/11/23 00:07:09;;;;;;;46.45;20.60;;;-2.50;99.90;;;;;;5071839;28;20048;-80
2023/11/23 00:09:35;;;;;;;39.55;19.38;;;-2.50;99.90;;;;;;5073006;28;20039;-75
2023/11/23 00:12:00;;;;;;;48.03;24.17;;;-2.60;99.90;;;;;;5071095;28;20016;-79
2023/11/23 00:14:30;;;;;;;41.88;22.88;;;-2.50;99.90;;;;;;5072857;28;20496;-79
2023/11/23 00:16:56;;;;;;;49.55;21.13;;;-2.50;99.90;;;;;;5073048;28;20043;-79
2023/11/23 00:19:22;;;;;;;43.63;21.42;;;-2.60;99.90;;;;;;5071486;28;20024;-75
2023/11/23 00:21:48;;;;;;;42.45;20.27;;;-2.50;99.90;;;;;;5071790;28;20434;-75
2023/11/23 00:24:17;;;;;;;39.72;20.15;;;-2.50;99.90;;;;;;5072625;28;20024;-78
2023/11/23 00:26:43;;;;;;;44.38;21.25;;;-2.50;99.90;;;;;;5072807;28;20059;-79
2023/11/23 00:29:10;;;;;;;40.83;19.02;;;-2.50;99.90;;;;;;5072699;28;20052;-79
2023/11/23 00:31:36;;;;;;;43.58;20.63;;;-2.50;99.90;;;;;;5071350;28;20048;-79
2023/11/23 00:34:05;;;;;;;42.25;22.02;;;-2.50;99.90;;;;;;5072482;28;20481;-75
2023/11/23 00:36:31;;;;;;;47.92;23.08;;;-2.50;99.90;;;;;;5071424;28;20020;-75
2023/11/23 00:38:57;;;;;;;50.17;22.50;;;-2.50;99.90;;;;;;5072649;28;20127;-79
2023/11/23 00:41:22;;;;;;;51.60;22.08;;;-2.50;99.90;;;;;;5071444;28;20451;-79
2023/11/23 00:43:50;;;;;;;47.00;23.67;;;-2.60;99.90;;;;;;5071461;28;20017;-80
2023/11/23 00:46:15;;;;;;;47.17;22.27;;;-2.60;99.90;;;;;;5071441;28;20135;-80
2023/11/23 00:48:41;;;;;;;52.80;24.33;;;-2.60;99.90;;;;;;5072535;28;20550;-80
2023/11/23 00:51:07;;;;;;;46.28;22.83;;;-2.60;99.90;;;;;;5072784;28;20029;-80
2023/11/23 00:53:32;;;;;;;51.30;23.48;;;-2.50;99.90;;;;;;5072478;28;20104;-80
2023/11/23 00:55:58;;;;;;;59.17;27.23;;;-2.50;99.90;;;;;;5071222;28;20024;-75
2023/11/23 00:58:24;;;;;;;55.55;24.55;;;-2.50;99.90;;;;;;5072497;28;20028;-80
2023/11/23 01:00:49;;;;;;;51.65;23.08;;;-2.50;99.90;;;;;;5071260;28;20062;-75
2023/11/23 01:03:15;;;;;;;49.65;21.75;;;-2.50;99.90;;;;;;5067095;28;20379;-79
2023/11/23 01:05:41;;;;;;;45.20;23.40;;;-2.60;99.90;;;;;;5064460;28;20028;-80
2023/11/23 01:08:07;;;;;;;59.55;24.05;;;-2.60;99.90;;;;;;5070903;28;20009;-79
2023/11/23 01:10:33;;;;;;;49.20;22.35;;;-2.50;99.90;;;;;;5072304;28;20024;-80
2023/11/23 01:12:58;;;;;;;50.63;22.10;;;-2.50;99.90;;;;;;5072384;28;20074;-74
2023/11/23 01:15:24;;;;;;;53.42;26.95;;;-2.50;99.90;;;;;;5072335;28;20067;-75
2023/11/23 01:17:50;;;;;;;58.50;26.45;;;-2.50;99.90;;;;;;5070778;28;20017;-79
2023/11/23 01:20:15;;;;;;;47.20;23.13;;;-2.50;99.90;;;;;;5072554;28;20025;-75
2023/11/23 01:22:41;;;;;;;48.15;21.77;;;-2.50;99.90;;;;;;5072222;28;20158;-75
2023/11/23 01:25:08;;;;;;;49.45;23.33;;;-2.60;99.90;;;;;;5076411;28;20028;-74
2023/11/23 01:27:37;;;;;;;62.60;31.23;;;-2.60;99.90;;;;;;5075933;28;20017;-75
2023/11/23 01:30:06;;;;;;;49.97;21.90;;;-2.60;99.90;;;;;;5074989;28;20044;-80
2023/11/23 01:32:32;;;;;;;47.72;21.25;;;-2.60;99.90;;;;;;5072502;28;20044;-80
2023/11/23 01:34:58;;;;;;;54.47;23.00;;;-2.60;99.90;;;;;;5075996;28;20082;-75
2023/11/23 01:37:23;;;;;;;48.30;21.60;;;-2.50;99.90;;;;;;5074659;28;20570;-79
2023/11/23 01:39:49;;;;;;;44.60;21.08;;;-2.60;99.90;;;;;;5074726;28;20025;-79
2023/11/23 01:42:15;;;;;;;54.58;24.73;;;-2.60;99.90;;;;;;5074316;28;20239;-79
2023/11/23 01:44:40;;;;;;;50.28;22.58;;;-2.50;99.90;;;;;;5074773;28;20032;-75
2023/11/23 01:47:10;;;;;;;52.78;22.70;;;-2.50;99.90;;;;;;5073564;28;20021;-74
2023/11/23 01:49:38;;;;;;;44.35;20.08;;;-2.50;99.90;;;;;;5074386;28;20549;-79
2023/11/23 01:52:03;;;;;;;42.00;19.17;;;-2.50;99.90;;;;;;5075415;28;20021;-74
2023/11/23 01:54:29;;;;;;;44.88;20.00;;;-2.50;99.90;;;;;;5075556;28;20028;-75
2023/11/23 01:56:56;;;;;;;43.85;18.92;;;-2.50;99.90;;;;;;5075385;28;20082;-75
2023/11/23 01:59:22;;;;;;;43.10;19.83;;;-2.50;99.90;;;;;;5075286;28;20021;-80
2023/11/23 02:01:49;;;;;;;38.28;20.30;;;-2.50;99.90;;;;;;5075646;28;20442;-75
2023/11/23 02:04:16;;;;;;;46.80;21.38;;;-2.50;99.90;;;;;;5074246;28;20115;-80
2023/11/23 02:06:42;;;;;;;46.08;20.90;;;-2.40;99.90;;;;;;5075248;28;20020;-75
2023/11/23 02:09:08;;;;;;;43.67;20.00;;;-2.40;99.90;;;;;;5074295;28;20016;-75
2023/11/23 02:11:35;;;;;;;39.53;20.08;;;-2.40;99.90;;;;;;5073952;28;20504;-75
2023/11/23 02:14:03;;;;;;;44.33;21.73;;;-2.40;99.90;;;;;;5074120;28;20062;-79
2023/11/23 02:16:28;;;;;;;47.00;21.20;;;-2.40;99.90;;;;;;5075416;28;20047;-79
2023/11/23 02:18:54;;;;;;;47.60;20.30;;;-2.40;99.90;;;;;;5075557;28;20049;-75
2023/11/23 02:21:20;;;;;;;44.72;20.63;;;-2.40;99.90;;;;;;5073703;28;20504;-80
2023/11/23 02:23:46;;;;;;;45.25;21.30;;;-2.40;99.90;;;;;;5073702;28;20020;-75
2023/11/23 02:26:11;;;;;;;42.15;19.38;;;-2.40;99.90;;;;;;5073795;28;20024;-79
2023/11/23 02:28:37;;;;;;;41.55;19.88;;;-2.40;99.90;;;;;;5074964;28;20048;-80
2023/11/23 02:31:03;;;;;;;46.40;19.58;;;-2.40;99.90;;;;;;5073561;28;20019;-79
2023/11/23 02:33:29;;;;;;;44.92;20.90;;;-2.40;99.90;;;;;;5072868;28;20044;-76
2023/11/23 02:35:54;;;;;;;40.53;19.88;;;-2.40;99.90;;;;;;5074524;28;20025;-75
2023/11/23 02:38:20;;;;;;;43.38;19.42;;;-2.40;99.90;;;;;;5073267;28;20385;-79
2023/11/23 02:40:45;;;;;;;40.25;18.83;;;-2.40;99.90;;;;;;5073607;28;20561;-75
2023/11/23 02:43:11;;;;;;;39.17;18.00;;;-2.40;99.90;;;;;;5073155;28;20401;-78
2023/11/23 02:45:37;;;;;;;41.75;19.98;;;-2.40;99.90;;;;;;5073716;28;20052;-79
2023/11/23 02:48:04;;;;;;;38.85;19.52;;;-2.40;99.90;;;;;;5073316;28;20016;-79
2023/11/23 02:50:30;;;;;;;34.60;18.80;;;-2.40;99.90;;;;;;5074861;28;20025;-79
2023/11/23 02:52:56;;;;;;;41.13;18.83;;;-2.40;99.90;;;;;;5074466;28;20367;-75
2023/11/23 02:55:22;;;;;;;40.42;19.85;;;-2.40;99.90;;;;;;5073108;28;20036;-75
2023/11/23 02:57:47;;;;;;;38.42;17.90;;;-2.40;99.90;;;;;;5073195;28;20493;-79
2023/11/23 03:00:13;;;;;;;36.58;18.42;;;-2.40;99.90;;;;;;5074657;28;20481;-80
2023/11/23 03:02:39;;;;;;;39.83;18.48;;;-2.40;99.90;;;;;;5074171;28;20462;-80
2023/11/23 03:05:05;;;;;;;42.35;19.92;;;-2.40;99.90;;;;;;5074496;28;20493;-75
2023/11/23 03:07:31;;;;;;;37.80;17.95;;;-2.40;99.90;;;;;;5073145;28;20028;-79
2023/11/23 03:09:57;;;;;;;33.72;16.92;;;-2.30;99.90;;;;;;5073218;28;20024;-75
2023/11/23 03:12:23;;;;;;;35.00;17.35;;;-2.30;99.90;;;;;;5073941;28;20017;-79
2023/11/23 03:14:48;;;;;;;41.63;19.25;;;-2.30;99.90;;;;;;5074164;28;20032;-75
2023/11/23 03:17:14;;;;;;;37.47;17.33;;;-2.40;99.90;;;;;;5073860;28;20030;-80
2023/11/23 03:19:40;;;;;;;36.67;17.13;;;-2.40;99.90;;;;;;5072862;28;20033;-75
2023/11/23 03:22:07;;;;;;;41.17;18.50;;;-2.40;99.90;;;;;;5073737;28;20021;-79
2023/11/23 03:24:33;;;;;;;43.88;20.10;;;-2.30;99.90;;;;;;5072921;28;20047;-79
2023/11/23 03:26:58;;;;;;;39.72;16.80;;;-2.30;99.90;;;;;;5073602;28;20461;-75
2023/11/23 03:29:24;;;;;;;39.85;17.95;;;-2.30;99.90;;;;;;5072712;28;20017;-75
2023/11/23 03:31:49;;;;;;;39.92;18.13;;;-2.30;99.90;;;;;;5072386;28;20044;-75
2023/11/23 03:34:15;;;;;;;39.40;18.38;;;-2.30;99.90;;;;;;5072440;28;20143;-75
2023/11/23 03:36:41;;;;;;;36.10;18.67;;;-2.20;99.90;;;;;;5073588;28;20021;-75
2023/11/23 03:39:09;;;;;;;34.85;16.17;;;-2.20;99.90;;;;;;5072665;28;20013;-75
2023/11/23 03:41:35;;;;;;;39.42;18.23;;;-2.20;99.90;;;;;;5072173;28;20017;-79
2023/11/23 03:44:00;;;;;;;35.92;18.25;;;-2.20;99.90;;;;;;5073606;28;20071;-75
2023/11/23 03:46:26;;;;;;;40.30;19.02;;;-2.20;99.90;;;;;;5073250;28;20028;-79
2023/11/23 03:48:52;;;;;;;35.35;18.50;;;-2.20;99.90;;;;;;5072328;28;20028;-74
2023/11/23 03:51:18;;;;;;;31.55;16.23;;;-2.20;99.90;;;;;;5071748;28;20024;-79
2023/11/23 03:53:44;;;;;;;32.10;17.42;;;-2.20;99.90;;;;;;5072273;28;20394;-79
2023/11/23 03:56:15;;;;;;;40.10;18.30;;;-2.20;99.90;;;;;;5072972;28;20106;-79
2023/11/23 03:58:44;;;;;;;40.10;19.00;;;-2.10;99.90;;;;;;5071959;28;20040;-75
2023/11/23 04:01:10;;;;;;;32.40;16.10;;;-2.10;99.90;;;;;;5071622;28;20138;-79
2023/11/23 04:03:41;;;;;;;35.65;16.50;;;-2.10;99.90;;;;;;5071944;28;20067;-75
2023/11/23 04:06:07;;;;;;;32.92;16.17;;;-2.10;99.90;;;;;;5072798;28;20091;-80
2023/11/23 04:08:32;;;;;;;45.20;18.50;;;-2.10;99.90;;;;;;5071673;28;20171;-75
2023/11/23 04:10:58;;;;;;;39.20;19.00;;;-2.10;99.90;;;;;;5071446;28;20009;-75
2023/11/23 04:13:24;;;;;;;39.28;17.75;;;-2.10;99.90;;;;;;5072313;28;20024;-75
2023/11/23 04:15:50;;;;;;;35.05;16.92;;;-2.10;99.90;;;;;;5071257;28;20047;-75
2023/11/23 04:18:15;;;;;;;32.63;17.45;;;-2.10;99.90;;;;;;5071691;28;20025;-74
2023/11/23 04:20:41;;;;;;;36.22;17.73;;;-2.00;99.90;;;;;;5072546;28;20062;-75
2023/11/23 04:23:07;;;;;;;36.50;17.15;;;-2.10;99.90;;;;;;5071341;28;20025;-74
2023/11/23 04:25:34;;;;;;;36.22;16.98;;;-2.00;99.90;;;;;;5071310;28;20028;-75
2023/11/23 04:28:00;;;;;;;38.63;18.77;;;-2.00;99.90;;;;;;5072719;28;20016;-75
2023/11/23 04:30:25;;;;;;;36.42;17.65;;;-2.00;99.90;;;;;;5072453;28;20576;-75
2023/11/23 04:32:51;;;;;;;36.67;17.27;;;-2.00;99.90;;;;;;5072158;28;20490;-80
2023/11/23 04:35:16;;;;;;;37.03;17.10;;;-2.00;99.90;;;;;;5070653;28;20052;-75
2023/11/23 04:37:42;;;;;;;35.85;17.30;;;-2.00;99.90;;;;;;5069464;28;20096;-76
2023/11/23 04:40:10;;;;;;;35.38;15.45;;;-1.90;99.90;;;;;;5070494;28;20027;-75
2023/11/23 04:42:36;;;;;;;37.08;17.58;;;-1.90;99.90;;;;;;5070784;28;20020;-80
2023/11/23 04:45:03;;;;;;;33.85;17.65;;;-1.90;99.90;;;;;;5070528;28;20085;-75
2023/11/23 04:47:28;;;;;;;42.53;17.85;;;-1.90;99.90;;;;;;5069452;28;20017;-75
2023/11/23 04:49:54;;;;;;;30.52;16.38;;;-1.90;99.90;;;;;;5069411;28;20032;-75
2023/11/23 04:52:20;;;;;;;33.88;16.55;;;-1.90;99.90;;;;;;5069311;28;20029;-75
2023/11/23 04:54:46;;;;;;;39.25;16.92;;;-1.90;99.90;;;;;;5069183;28;20059;-75
2023/11/23 04:57:12;;;;;;;32.00;16.95;;;-1.90;99.90;;;;;;5072025;28;20482;-75
2023/11/23 04:59:38;;;;;;;43.33;20.30;;;-1.80;99.90;;;;;;5071286;28;20024;-75
2023/11/23 05:02:04;;;;;;;34.38;18.17;;;-1.80;99.90;;;;;;5072849;28;20029;-79
2023/11/23 05:04:31;;;;;;;34.72;15.68;;;-1.80;99.90;;;;;;5072496;28;20032;-80
2023/11/23 05:06:57;;;;;;;39.50;17.02;;;-1.80;99.90;;;;;;5072398;28;20111;-75
2023/11/23 05:09:23;;;;;;;35.75;17.50;;;-1.80;99.90;;;;;;5070912;28;20024;-79
2023/11/23 05:11:49;;;;;;;39.28;16.52;;;-1.70;99.90;;;;;;5062823;28;20017;-80
2023/11/23 05:14:14;;;;;;;43.50;17.60;;;-1.70;99.90;;;;;;5067370;28;20037;-79
2023/11/23 05:16:40;;;;;;;41.47;18.73;;;-1.70;99.90;;;;;;5072184;28;20025;-75
2023/11/23 05:19:06;;;;;;;39.95;16.73;;;-1.70;99.90;;;;;;5072495;28;20066;-75
2023/11/23 05:21:32;;;;;;;36.90;16.88;;;-1.70;99.90;;;;;;5072222;28;20021;-75
2023/11/23 05:23:58;;;;;;;38.80;17.67;;;-1.70;99.90;;;;;;5072412;28;20027;-74
2023/11/23 05:26:25;;;;;;;39.60;17.63;;;-1.70;99.90;;;;;;5070911;28;20017;-75
2023/11/23 05:28:51;;;;;;;39.15;18.25;;;-1.60;99.90;;;;;;5059793;28;20070;-76
2023/11/23 05:31:17;;;;;;;32.28;15.73;;;-1.60;99.90;;;;;;5070525;28;20481;-79
2023/11/23 05:33:42;;;;;;;42.00;19.95;;;-1.60;99.90;;;;;;5061087;28;20021;-75
2023/11/23 05:36:10;;;;;;;45.63;18.95;;;-1.60;99.90;;;;;;5070537;28;20033;-80
2023/11/23 05:38:36;;;;;;;42.30;18.88;;;-1.60;99.90;;;;;;5072255;28;20495;-79
2023/11/23 05:41:01;;;;;;;42.83;18.40;;;-1.50;99.90;;;;;;5076959;28;20077;-75
2023/11/23 05:43:27;;;;;;;42.97;17.48;;;-1.50;99.90;;;;;;5070805;28;20056;-80
2023/11/23 05:45:52;;;;;;;35.30;17.20;;;-1.50;99.90;;;;;;5072118;28;20028;-75
2023/11/23 05:48:18;;;;;;;39.63;18.60;;;-1.50;99.90;;;;;;5071872;28;20025;-75
2023/11/23 05:50:44;;;;;;;42.22;17.88;;;-1.50;99.90;;;;;;5072046;28;20028;-80
2023/11/23 05:53:09;;;;;;;43.92;19.00;;;-1.50;99.90;;;;;;5071986;28;20025;-80
2023/11/23 05:55:35;;;;;;;66.15;25.85;;;-1.40;99.90;;;;;;5070755;28;20040;-75
2023/11/23 05:58:01;;;;;;;153.65;56.45;;;-1.40;99.90;;;;;;5071818;28;20013;-75
2023/11/23 06:00:27;;;;;;;178.45;58.50;;;-1.40;99.90;;;;;;5070718;28;20025;-79
2023/11/23 06:02:53;;;;;;;260.75;89.00;;;-1.40;99.90;;;;;;5070773;28;20527;-80
2023/11/23 06:05:18;;;;;;;291.60;99.43;;;-1.40;99.90;;;;;;5070670;28;20021;-79
2023/11/23 06:07:44;;;;;;;355.50;119.63;;;-1.30;99.90;;;;;;5071822;28;20013;-79
2023/11/23 06:10:11;;;;;;;124.45;41.53;;;-1.30;99.90;;;;;;5073931;28;20386;-75
2023/11/23 06:12:38;;;;;;;67.53;24.75;;;-1.30;99.90;;;;;;5074063;28;20017;-75
2023/11/23 06:15:08;;;;;;;118.30;41.47;;;-1.30;99.90;;;;;;5075172;28;20042;-80
2023/11/23 06:17:34;;;;;;;152.15;53.95;;;-1.30;99.90;;;;;;5061070;28;20031;-80
2023/11/23 06:20:00;;;;;;;250.20;77.82;;;-1.20;99.90;;;;;;5075046;28;20013;-80
2023/11/23 06:22:26;;;;;;;157.98;49.30;;;-1.20;99.90;;;;;;5074025;28;20397;-75
2023/11/23 06:24:52;;;;;;;88.35;27.60;;;-1.20;99.90;;;;;;5073178;28;20016;-75
2023/11/23 06:27:18;;;;;;;95.30;29.75;;;-1.20;99.90;;;;;;5064599;28;20111;-75
2023/11/23 06:29:44;;;;;;;69.15;24.05;;;-1.20;99.90;;;;;;5074782;28;20103;-75
2023/11/23 06:32:12;;;;;;;74.05;25.00;;;-1.10;99.90;;;;;;5073085;28;20131;-75
2023/11/23 06:34:38;;;;;;;149.10;51.78;;;-1.10;99.90;;;;;;5073194;28;20036;-75
2023/11/23 06:37:04;;;;;;;151.90;51.85;;;-1.10;99.90;;;;;;5074835;28;20474;-75
2023/11/23 06:39:29;;;;;;;362.83;115.80;;;-1.10;99.90;;;;;;5074077;28;20373;-75
2023/11/23 06:41:55;;;;;;;102.80;33.03;;;-1.10;99.90;;;;;;5074806;28;20028;-75
2023/11/23 06:44:22;;;;;;;92.40;28.08;;;-1.00;99.90;;;;;;5072618;28;20028;-76
2023/11/23 06:46:48;;;;;;;122.85;36.83;;;-1.00;99.90;;;;;;5073694;28;20066;-75
2023/11/23 06:49:15;;;;;;;216.20;70.18;;;-0.90;99.90;;;;;;5073158;28;20029;-76
2023/11/23 06:51:41;;;;;;;178.48;55.92;;;-0.90;99.90;;;;;;5073151;28;20024;-76
2023/11/23 06:54:09;;;;;;;70.55;24.33;;;-0.90;99.90;;;;;;5072685;28;20478;-76
2023/11/23 06:56:35;;;;;;;95.78;29.08;;;-0.90;99.90;;;;;;5073570;28;20100;-79
2023/11/23 06:59:01;;;;;;;115.13;43.65;;;-0.80;99.90;;;;;;5074396;28;20063;-79
2023/11/23 07:01:27;;;;;;;225.60;71.10;;;-0.80;99.90;;;;;;5069149;28;20122;-80
2023/11/23 07:03:52;;;;;;;110.68;32.50;;;-0.70;99.90;;;;;;5074028;28;20075;-75
2023/11/23 07:06:18;;;;;;;156.52;40.92;;;-0.70;99.90;;;;;;5066209;28;20052;-75
2023/11/23 07:08:44;;;;;;;93.05;27.85;;;-0.70;99.90;;;;;;5071741;28;20028;-75
2023/11/23 07:11:17;;;;;;;106.07;31.40;;;-0.60;99.90;;;;;;5073432;28;20460;-75
2023/11/23 07:13:43;;;;;;;69.97;21.00;;;-0.60;99.90;;;;;;5073606;28;20020;-76
2023/11/23 07:16:11;;;;;;;86.10;26.90;;;-0.60;99.90;;;;;;5072215;28;20025;-79
2023/11/23 07:18:37;;;;;;;59.63;21.02;;;-0.50;99.90;;;;;;5073302;28;20027;-79
2023/11/23 07:21:03;;;;;;;51.25;19.35;;;-0.50;99.90;;;;;;5072723;28;20016;-79
2023/11/23 07:23:29;;;;;;;65.35;20.90;;;-0.40;99.90;;;;;;5070755;28;20032;-80
2023/11/23 07:25:54;;;;;;;67.18;23.13;;;-0.40;99.90;;;;;;5067147;28;20032;-77
2023/11/23 07:28:22;;;;;;;57.17;21.55;;;-0.40;99.90;;;;;;5071473;28;20036;-77
2023/11/23 07:30:57;;;;;;;67.05;24.88;;;-0.30;99.90;;;;;;5071804;28;20095;-76
2023/11/23 07:33:29;;;;;;;137.77;46.53;;;-0.30;99.90;;;;;;5071685;28;20045;-77
2023/11/23 07:35:55;;;;;;;90.28;32.00;;;-0.20;99.90;;;;;;5074449;28;20106;-75
2023/11/23 07:38:22;;;;;;;52.63;21.58;;;-0.20;99.90;;;;;;5070743;28;20024;-75
2023/11/23 07:40:47;;;;;;;56.13;20.35;;;-0.20;99.90;;;;;;5070824;28;20043;-77
2023/11/23 07:43:14;;;;;;;81.93;26.70;;;-0.20;99.90;;;;;;5071529;28;20020;-77
2023/11/23 07:45:40;;;;;;;122.78;46.70;;;-0.20;99.90;;;;;;5072304;28;20013;-76
2023/11/23 07:48:08;;;;;;;73.05;24.38;;;-0.20;99.90;;;;;;5073654;28;20035;-77
2023/11/23 07:50:37;;;;;;;69.72;19.95;;;-0.10;99.90;;;;;;5072300;28;20056;-76
2023/11/23 07:53:03;;;;;;;51.03;18.52;;;-0.10;99.90;;;;;;5071989;28;20017;-79
2023/11/23 07:55:29;;;;;;;89.28;31.75;;;-0.10;99.90;;;;;;5073358;28;20032;-77
2023/11/23 07:57:54;;;;;;;112.93;40.97;;;-0.10;99.90;;;;;;5071709;28;20017;-75
2023/11/23 08:00:20;;;;;;;82.80;29.77;;;-0.10;99.90;;;;;;5072720;28;20099;-77
2023/11/23 08:02:47;;;;;;;55.15;20.63;;;0.00;99.90;;;;;;5071122;28;20038;-79
2023/11/23 08:05:13;;;;;;;51.70;20.08;;;0.00;99.90;;;;;;5071870;28;20024;-76
2023/11/23 08:07:38;;;;;;;91.57;34.97;;;0.10;99.90;;;;;;5072785;28;20016;-77
2023/11/23 08:10:12;;;;;;;68.40;25.20;;;0.10;99.90;;;;;;5071725;28;20039;-75
2023/11/23 08:12:39;;;;;;;47.83;18.60;;;0.10;99.90;;;;;;5072764;28;20050;-77
2023/11/23 08:15:06;;;;;;;47.35;18.80;;;0.10;99.90;;;;;;5071633;28;20064;-75
2023/11/23 08:17:32;;;;;;;58.55;24.05;;;0.10;99.90;;;;;;5071329;28;20020;-75
2023/11/23 08:19:58;;;;;;;87.78;33.90;;;0.10;99.90;;;;;;5072936;28;20066;-77
2023/11/23 08:22:24;;;;;;;43.47;19.73;;;0.20;99.90;;;;;;5072621;28;20028;-75
2023/11/23 08:24:49;;;;;;;54.70;20.30;;;0.20;99.90;;;;;;5072846;28;20016;-77
2023/11/23 08:27:15;;;;;;;50.83;23.13;;;0.20;99.90;;;;;;5072573;28;20036;-77
2023/11/23 08:29:41;;;;;;;58.13;21.98;;;0.20;99.90;;;;;;5071354;28;20028;-77
2023/11/23 08:32:12;;;;;;;68.93;25.63;;;0.20;99.90;;;;;;5070666;28;20048;-75
2023/11/23 08:34:38;;;;;;;39.08;18.17;;;0.30;99.90;;;;;;5061370;28;20037;-75
2023/11/23 08:37:04;;;;;;;44.65;19.45;;;0.20;99.90;;;;;;5071200;28;20028;-77
2023/11/23 08:39:29;;;;;;;56.53;23.55;;;0.20;99.90;;;;;;5071207;28;20119;-77
2023/11/23 08:41:55;;;;;;;58.55;22.88;;;0.20;99.90;;;;;;5071561;28;20115;-77
2023/11/23 08:44:21;;;;;;;48.10;19.95;;;0.30;99.90;;;;;;5072779;28;20082;-77
2023/11/23 08:46:46;;;;;;;43.35;20.25;;;0.30;99.90;;;;;;5072057;28;20028;-77
2023/11/23 08:49:13;;;;;;;52.17;23.02;;;0.40;99.90;;;;;;5072677;28;20020;-76
2023/11/23 08:51:39;;;;;;;47.20;22.45;;;0.40;99.90;;;;;;5072332;28;20020;-76
2023/11/23 08:54:05;;;;;;;64.38;28.45;;;0.40;99.90;;;;;;5071207;28;20017;-76
2023/11/23 08:56:32;;;;;;;64.03;24.70;;;0.40;99.90;;;;;;5070887;28;20027;-78
2023/11/23 08:58:58;;;;;;;37.55;18.00;;;0.50;99.90;;;;;;5071080;28;20087;-78
2023/11/23 09:01:26;;;;;;;47.60;21.98;;;0.50;99.90;;;;;;5072335;28;20031;-78
2023/11/23 09:03:52;;;;;;;58.53;25.08;;;0.50;99.90;;;;;;5072539;28;20012;-77
2023/11/23 09:06:18;;;;;;;51.80;22.30;;;0.60;99.90;;;;;;5072133;28;20028;-78
2023/11/23 09:08:48;;;;;;;47.53;21.90;;;0.60;99.90;;;;;;5071730;28;20508;-79
2023/11/23 09:11:15;;;;;;;39.83;18.13;;;0.60;99.90;;;;;;5071076;28;20056;-77
2023/11/23 09:13:41;;;;;;;50.40;22.20;;;0.70;99.90;;;;;;5069526;28;20029;-79
2023/11/23 09:16:07;;;;;;;51.15;22.10;;;0.70;99.90;;;;;;5070484;28;20474;-79
2023/11/23 09:18:33;;;;;;;44.67;20.30;;;0.70;99.90;;;;;;5072371;28;20075;-77
2023/11/23 09:20:59;;;;;;;52.05;22.45;;;0.70;99.90;;;;;;5069061;28;20082;-78
2023/11/23 09:23:27;;;;;;;43.03;19.25;;;0.80;99.90;;;;;;5070194;28;20025;-76
2023/11/23 09:25:53;;;;;;;48.28;20.75;;;0.80;99.90;;;;;;5068871;28;20009;-79
2023/11/23 09:28:20;;;;;;;49.40;21.08;;;0.80;99.90;;;;;;5070205;28;20114;-79
2023/11/23 09:30:45;;;;;;;41.95;19.92;;;0.90;99.90;;;;;;5069380;28;20020;-78
2023/11/23 09:33:11;;;;;;;37.95;19.83;;;0.90;99.90;;;;;;5069246;28;20494;-79
2023/11/23 09:35:38;;;;;;;48.13;22.40;;;1.00;99.90;;;;;;5071710;28;20539;-76
2023/11/23 09:38:04;;;;;;;40.80;17.92;;;1.00;99.90;;;;;;5072142;28;20047;-77
2023/11/23 09:40:30;;;;;;;44.92;19.55;;;1.10;99.90;;;;;;5072084;28;20025;-79
2023/11/23 09:42:56;;;;;;;36.85;16.95;;;1.10;99.90;;;;;;5070822;28;20029;-79
2023/11/23 09:45:24;;;;;;;48.72;21.02;;;1.10;99.90;;;;;;5075793;28;20730;-79
2023/11/23 09:47:50;;;;;;;40.30;18.33;;;1.10;99.90;;;;;;5074585;28;20017;-77
2023/11/23 09:50:20;;;;;;;37.08;16.85;;;1.10;99.90;;;;;;5075904;28;20028;-78
2023/11/23 09:52:46;;;;;;;41.15;18.38;;;1.20;99.90;;;;;;5075858;28;20020;-77
2023/11/23 09:55:16;;;;;;;44.45;18.17;;;1.20;99.90;;;;;;5074220;28;20031;-78
2023/11/23 09:57:47;;;;;;;41.38;22.52;;;1.20;99.90;;;;;;5075577;28;20103;-76
2023/11/23 10:00:14;;;;;;;41.28;20.33;;;1.20;99.90;;;;;;5074470;28;20078;-77
2023/11/23 10:02:44;;;;;;;40.80;19.70;;;1.20;99.90;;;;;;5074138;28;20036;-76
2023/11/23 10:05:14;;;;;;;36.90;18.30;;;1.10;99.90;;;;;;5074355;28;20104;-78
2023/11/23 10:07:45;;;;;;;66.20;30.30;;;1.10;99.90;;;;;;5074046;28;20016;-76
2023/11/23 10:10:14;;;;;;;51.22;23.98;;;1.10;99.90;;;;;;5074216;28;20029;-77
2023/11/23 10:12:40;;;;;;;37.65;18.00;;;1.10;99.90;;;;;;5073957;28;20104;-77
2023/11/23 10:15:09;;;;;;;42.55;20.98;;;1.10;99.90;;;;;;5073994;28;20033;-78
2023/11/23 10:17:36;;;;;;;40.50;20.23;;;1.00;99.90;;;;;;5074061;28;20031;-76
2023/11/23 10:20:10;;;;;;;44.58;18.63;;;1.00;99.90;;;;;;5074067;28;20052;-78
2023/11/23 10:22:45;;;;;;;43.53;18.85;;;0.90;99.90;;;;;;5073842;28;20029;-76
2023/11/23 10:25:31;;;;;;;40.78;19.27;;;1.00;99.90;;;;;;5073828;28;20020;-78
2023/11/23 10:28:00;;;;;;;48.40;21.13;;;1.00;99.90;;;;;;5075154;28;20397;-76
2023/11/23 10:30:28;;;;;;;47.05;21.15;;;1.10;99.90;;;;;;5073735;28;20109;-78
2023/11/23 10:32:54;;;;;;;38.50;18.83;;;1.10;99.90;;;;;;5075242;28;20052;-76
2023/11/23 10:35:20;;;;;;;35.72;17.75;;;1.20;99.90;;;;;;5073631;28;20033;-76
2023/11/23 10:37:53;;;;;;;34.80;17.50;;;1.20;99.90;;;;;;5073502;28;20393;-76
2023/11/23 10:40:21;;;;;;;42.13;18.65;;;1.30;99.90;;;;;;5062890;28;20059;-79
2023/11/23 10:42:51;;;;;;;42.25;19.75;;;1.40;99.90;;;;;;5073087;28;20032;-76
2023/11/23 10:45:21;;;;;;;34.53;17.85;;;1.40;99.90;;;;;;5074896;28;20035;-78
2023/11/23 10:47:47;;;;;;;38.40;18.15;;;1.50;99.90;;;;;;5074391;28;20012;-78
2023/11/23 10:50:18;;;;;;;46.95;20.73;;;1.40;99.90;;;;;;5074709;28;20028;-79
2023/11/23 10:52:45;;;;;;;36.30;15.25;;;1.40;99.90;;;;;;5074635;28;20029;-77
2023/11/23 10:55:11;;;;;;;35.90;17.60;;;1.40;99.90;;;;;;5072303;28;20032;-78
2023/11/23 10:57:54;;;;;;;42.47;18.13;;;1.40;99.90;;;;;;5074313;28;20027;-76
2023/11/23 11:00:24;;;;;;;35.70;18.30;;;1.40;99.90;;;;;;5073499;28;20028;-76
2023/11/23 11:02:59;;;;;;;36.60;16.83;;;1.40;99.90;;;;;;5073161;28;20466;-76
2023/11/23 11:05:35;;;;;;;36.22;19.23;;;1.40;99.90;;;;;;5073249;28;20466;-76
2023/11/23 11:08:05;;;;;;;40.72;18.75;;;1.40;99.90;;;;;;5061516;28;20013;-77
2023/11/23 11:10:46;;;;;;;45.38;22.67;;;1.40;99.90;;;;;;5072878;28;20051;-78
2023/11/23 11:13:15;;;;;;;37.65;17.77;;;1.40;99.90;;;;;;5073036;28;20017;-78
2023/11/23 11:15:54;;;;;;;33.05;17.17;;;1.40;99.90;;;;;;5073846;28;20032;-77
2023/11/23 11:18:27;;;;;;;33.60;18.02;;;1.50;99.90;;;;;;5072559;28;20073;-76
2023/11/23 11:21:12;;;;;;;43.78;18.98;;;1.50;99.90;;;;;;5066038;28;20013;-76
2023/11/23 11:23:51;;;;;;;34.80;17.88;;;1.50;99.90;;;;;;5069376;28;20066;-76
2023/11/23 11:26:18;;;;;;;42.00;18.50;;;1.60;99.90;;;;;;5069405;28;20036;-76
2023/11/23 11:28:57;;;;;;;32.97;18.38;;;1.60;99.90;;;;;;5071166;28;20024;-76
2023/11/23 11:31:36;;;;;;;33.65;17.30;;;1.70;99.90;;;;;;5069146;28;20036;-76
2023/11/23 11:34:03;;;;;;;34.38;15.98;;;1.70;99.90;;;;;;5065284;28;20082;-76
2023/11/23 11:36:31;;;;;;;33.55;18.35;;;1.70;99.90;;;;;;5070585;28;20032;-76
2023/11/23 11:39:01;;;;;;;33.03;16.35;;;1.80;99.90;;;;;;5070762;28;20027;-76
2023/11/23 11:41:30;;;;;;;34.05;15.90;;;1.90;99.90;;;;;;5068124;28;20047;-75
2023/11/23 11:43:59;;;;;;;31.73;16.30;;;1.90;99.90;;;;;;5068688;28;20107;-75
2023/11/23 11:46:28;;;;;;;29.67;17.67;;;1.90;99.90;;;;;;5071287;28;20037;-75
2023/11/23 11:48:54;;;;;;;34.72;17.23;;;1.90;99.90;;;;;;5069031;28;20116;-76
2023/11/23 11:51:20;;;;;;;41.47;18.17;;;2.00;99.90;;;;;;5066889;28;20033;-76
2023/11/23 11:53:46;;;;;;;31.92;16.38;;;2.00;99.90;;;;;;5070725;28;20078;-76
2023/11/23 11:56:13;;;;;;;28.83;15.38;;;2.00;99.90;;;;;;5071960;28;20041;-76
2023/11/23 11:58:39;;;;;;;29.02;15.48;;;2.00;99.90;;;;;;5070317;28;20550;-76
2023/11/23 12:01:08;;;;;;;29.00;16.55;;;2.10;99.90;;;;;;5073437;28;20119;-75
2023/11/23 12:03:34;;;;;;;34.53;16.30;;;2.20;99.90;;;;;;5067754;28;20370;-76
2023/11/23 12:06:01;;;;;;;28.83;14.38;;;2.20;99.90;;;;;;5071589;28;20048;-76
2023/11/23 12:08:33;;;;;;;31.65;16.15;;;2.20;99.90;;;;;;5071516;28;20095;-75
2023/11/23 12:10:59;;;;;;;31.33;17.52;;;2.20;99.90;;;;;;5069530;28;20033;-76
2023/11/23 12:13:25;;;;;;;31.92;16.00;;;2.30;99.90;;;;;;5070698;28;20016;-76
2023/11/23 12:15:54;;;;;;;29.55;14.75;;;2.30;99.90;;;;;;5069678;28;20062;-76
2023/11/23 12:18:35;;;;;;;26.20;13.35;;;2.30;99.90;;;;;;5069049;28;20036;-75
2023/11/23 12:21:03;;;;;;;33.83;17.52;;;2.30;99.90;;;;;;5072135;28;20055;-76
2023/11/23 12:23:39;;;;;;;30.88;15.57;;;2.30;99.90;;;;;;5069952;28;20070;-76
2023/11/23 12:26:05;;;;;;;24.13;13.07;;;2.40;99.90;;;;;;5068139;28;20560;-77
2023/11/23 12:28:32;;;;;;;25.77;13.55;;;2.30;99.90;;;;;;5071327;28;20062;-77
2023/11/23 12:30:57;;;;;;;29.00;14.40;;;2.40;99.90;;;;;;5071421;28;20021;-76